createdAt,value
2019-01-21T00:01:05.568Z,83.68
2019-01-21T00:03:34.686Z,83.09
2019-01-21T00:06:03.748Z,83.81
2019-01-21T00:08:32.959Z,83.20
2019-01-21T00:11:02.110Z,83.42
2019-01-21T00:13:31.212Z,83.52
2019-01-21T00:16:00.301Z,83.24
2019-01-21T00:18:29.384Z,84.20
2019-01-21T00:20:58.442Z,83.79
2019-01-21T00:23:27.523Z,83.78
2019-01-21T00:25:56.596Z,83.59
2019-01-21T00:28:25.689Z,83.66
2019-01-21T00:30:54.779Z,84.21
2019-01-21T00:33:23.888Z,84.67
2019-01-21T00:35:52.963Z,84.74
2019-01-21T00:38:22.031Z,84.70
2019-01-21T00:40:51.115Z,84.70
2019-01-21T00:43:20.165Z,84.13
2019-01-21T00:45:49.260Z,84.32
2019-01-21T00:48:18.312Z,84.67
2019-01-21T00:50:47.398Z,84.66
2019-01-21T00:53:16.455Z,84.66
2019-01-21T00:55:45.779Z,84.88
2019-01-21T00:58:14.881Z,85.05
2019-01-21T01:00:44.006Z,85.30
2019-01-21T01:03:13.057Z,85.48
2019-01-21T01:05:42.142Z,85.11
2019-01-21T01:08:11.200Z,84.93
2019-01-21T01:10:40.286Z,84.79
2019-01-21T01:13:09.384Z,85.36
2019-01-21T01:15:38.455Z,85.85
2019-01-21T01:18:07.546Z,85.60
2019-01-21T01:20:36.635Z,85.75
2019-01-21T01:23:05.739Z,85.67
2019-01-21T01:25:35.028Z,85.67
2019-01-21T01:28:04.124Z,85.85
2019-01-21T01:30:33.193Z,85.00
2019-01-21T01:33:02.242Z,84.86
2019-01-21T01:35:31.315Z,85.32
2019-01-21T01:38:00.340Z,85.46
2019-01-21T01:40:29.439Z,85.46
2019-01-21T01:42:58.473Z,85.31
2019-01-21T01:45:28.518Z,85.33
2019-01-21T01:48:00.000Z,85.31
2019-01-21T01:50:29.060Z,85.06
2019-01-21T01:52:58.182Z,85.07
2019-01-21T01:55:29.105Z,85.20
2019-01-21T01:57:59.675Z,85.66
2019-01-21T02:00:28.711Z,85.64
2019-01-21T02:02:57.850Z,85.64
2019-01-21T02:05:26.874Z,85.99
2019-01-21T02:07:55.931Z,86.04
2019-01-21T02:10:24.990Z,85.82
2019-01-21T02:12:54.078Z,86.19
2019-01-21T02:15:23.141Z,86.41
2019-01-21T02:17:52.462Z,86.35
2019-01-21T02:20:21.454Z,86.09
2019-01-21T02:22:52.955Z,85.81
2019-01-21T02:25:23.746Z,85.81
2019-01-21T02:28:09.921Z,85.87
2019-01-21T02:31:38.713Z,86.15
2019-01-21T02:34:29.008Z,86.21
2019-01-21T02:37:27.275Z,86.18
2019-01-21T02:40:32.422Z,86.21
2019-01-21T02:43:31.095Z,86.27
2019-01-21T02:46:21.928Z,86.09
2019-01-21T02:49:06.375Z,86.55
2019-01-21T02:52:13.267Z,85.82
2019-01-21T02:55:05.104Z,86.86
2019-01-21T02:58:12.475Z,86.72
2019-01-21T03:01:17.414Z,86.41
2019-01-21T03:04:10.039Z,86.03
2019-01-21T03:07:10.055Z,86.10
2019-01-21T03:10:09.563Z,86.57
2019-01-21T03:13:22.065Z,86.58
2019-01-21T03:16:20.009Z,86.58
2019-01-21T03:19:04.018Z,86.63
2019-01-21T03:22:23.430Z,86.57
2019-01-21T03:25:32.631Z,86.52
2019-01-21T03:28:43.605Z,86.59
2019-01-21T03:31:35.642Z,86.22
2019-01-21T03:34:40.841Z,86.55
2019-01-21T03:37:44.208Z,86.79
2019-01-21T03:40:21.019Z,86.75
2019-01-21T03:43:22.262Z,86.37
2019-01-21T03:46:31.086Z,86.80
2019-01-21T03:49:06.310Z,86.82
2019-01-21T03:52:19.447Z,86.10
2019-01-21T03:54:52.497Z,86.50
2019-01-21T03:57:36.679Z,86.90
2019-01-21T04:00:26.635Z,86.76
2019-01-21T04:03:41.499Z,86.74
2019-01-21T04:06:31.159Z,86.14
2019-01-21T04:09:42.263Z,86.38
2019-01-21T04:16:27.970Z,86.80
2019-01-21T04:19:21.862Z,87.17
2019-01-21T04:22:26.598Z,87.23
2019-01-21T04:25:52.072Z,86.99
2019-01-21T04:28:33.031Z,87.50
2019-01-21T04:31:42.643Z,87.12
2019-01-21T04:35:08.219Z,87.07
2019-01-21T04:38:05.277Z,87.05
2019-01-21T04:41:24.776Z,87.34
2019-01-21T04:44:32.267Z,87.06
2019-01-21T04:47:45.379Z,87.30
2019-01-21T04:50:50.990Z,87.03
2019-01-21T04:53:31.944Z,87.40
2019-01-21T04:56:36.665Z,86.90
2019-01-21T04:59:41.693Z,86.83
2019-01-21T05:03:00.933Z,86.88
2019-01-21T05:06:01.931Z,86.41
2019-01-21T05:09:20.969Z,86.89
2019-01-21T05:12:18.940Z,86.66
2019-01-21T05:15:44.381Z,87.14
2019-01-21T05:18:49.635Z,87.14
2019-01-21T05:21:55.745Z,86.90
2019-01-21T05:24:44.226Z,86.52
2019-01-21T05:28:00.268Z,87.04
2019-01-21T05:31:12.201Z,86.71
2019-01-21T05:34:55.605Z,87.06
2019-01-21T05:38:07.863Z,87.12
2019-01-21T05:41:21.543Z,87.32
2019-01-21T05:44:21.143Z,87.63
2019-01-21T05:47:33.529Z,87.63
2019-01-21T05:50:24.286Z,87.57
2019-01-21T05:53:26.376Z,87.53
2019-01-21T05:56:29.112Z,87.47
2019-01-21T05:59:33.431Z,87.89
2019-01-21T06:02:22.681Z,87.89
2019-01-21T06:05:20.618Z,87.87
2019-01-21T06:08:34.594Z,87.86
2019-01-21T06:11:22.394Z,87.63
2019-01-21T06:14:31.227Z,88.07
2019-01-21T06:17:23.013Z,87.84
2019-01-21T06:20:19.293Z,87.73
2019-01-21T06:23:31.468Z,87.59
2019-01-21T06:26:32.036Z,87.40
2019-01-21T06:29:26.348Z,87.45
2019-01-21T06:32:39.399Z,87.95
2019-01-21T06:35:54.594Z,87.79
2019-01-21T06:38:53.288Z,87.65
2019-01-21T06:41:59.396Z,87.58
2019-01-21T06:45:15.509Z,87.64
2019-01-21T06:48:19.340Z,88.30
2019-01-21T06:51:31.283Z,88.17
2019-01-21T06:54:11.130Z,87.62
2019-01-21T06:57:01.288Z,87.90
2019-01-21T07:00:26.591Z,87.79
2019-01-21T07:03:36.636Z,88.13
2019-01-21T07:06:48.596Z,88.17
2019-01-21T07:09:39.835Z,88.17
2019-01-21T07:12:30.272Z,88.28
2019-01-21T07:15:33.880Z,88.30
2019-01-21T07:18:41.048Z,88.15
2019-01-21T07:21:47.304Z,88.24
2019-01-21T07:24:59.338Z,88.24
2019-01-21T07:27:37.818Z,88.37
2019-01-21T07:30:46.140Z,88.38
2019-01-21T07:34:08.241Z,88.51
2019-01-21T07:37:17.467Z,88.24
2019-01-21T07:40:25.301Z,87.79
2019-01-21T07:43:30.013Z,87.77
2019-01-21T07:46:58.411Z,87.93
2019-01-21T07:50:18.170Z,87.73
2019-01-21T07:53:31.570Z,87.15
2019-01-21T07:56:21.641Z,86.60
2019-01-21T07:59:30.442Z,86.68
2019-01-21T08:02:38.324Z,86.69
2019-01-21T08:05:47.144Z,87.23
2019-01-21T08:08:35.056Z,86.96
2019-01-21T08:11:48.472Z,86.88
2019-01-21T08:14:45.946Z,86.70
2019-01-21T08:18:00.881Z,86.41
2019-01-21T08:20:56.107Z,86.33
2019-01-21T08:23:53.709Z,86.34
2019-01-21T08:27:01.227Z,86.34
2019-01-21T08:30:26.285Z,87.34
2019-01-21T08:33:29.253Z,87.34
2019-01-21T08:36:29.418Z,87.25
2019-01-21T08:39:40.140Z,86.52
2019-01-21T08:42:25.433Z,86.50
2019-01-21T08:45:29.847Z,86.61
2019-01-21T08:48:37.218Z,86.72
2019-01-21T08:51:20.186Z,86.99
2019-01-21T08:53:57.920Z,86.71
2019-01-21T08:56:44.152Z,86.45
2019-01-21T08:59:42.086Z,86.16
2019-01-21T09:02:41.237Z,85.51
2019-01-21T09:05:46.409Z,85.70
2019-01-21T09:08:48.891Z,85.68
2019-01-21T09:11:53.749Z,85.45
2019-01-21T09:14:40.176Z,85.71
2019-01-21T09:17:51.842Z,85.36
2019-01-21T09:20:57.958Z,85.28
2019-01-21T09:24:08.923Z,84.88
2019-01-21T09:26:56.938Z,84.98
2019-01-21T09:29:54.550Z,84.84
2019-01-21T09:33:03.601Z,84.75
2019-01-21T09:36:09.987Z,84.43
2019-01-21T09:39:05.719Z,83.99
2019-01-21T09:42:45.514Z,83.55
2019-01-21T09:57:28.533Z,83.10
2019-01-21T09:59:59.986Z,82.58
2019-01-21T10:02:42.142Z,81.99
2019-01-21T10:05:15.180Z,81.36
2019-01-21T10:08:36.376Z,81.47
2019-01-21T10:11:55.485Z,81.17
2019-01-21T10:15:01.404Z,80.37
2019-01-21T10:18:13.285Z,80.08
2019-01-21T10:21:29.479Z,79.51
2019-01-21T10:24:49.743Z,79.29
2019-01-21T10:28:02.852Z,78.37
2019-01-21T10:30:57.904Z,78.73
2019-01-21T10:33:54.271Z,77.56
2019-01-21T10:37:06.148Z,77.98
2019-01-21T10:40:08.178Z,78.51
2019-01-21T10:43:08.082Z,77.39
2019-01-21T10:45:58.537Z,77.41
2019-01-21T10:49:15.174Z,77.62
2019-01-21T10:52:10.868Z,77.37
2019-01-21T10:55:29.737Z,77.06
2019-01-21T10:58:10.978Z,76.65
2019-01-21T11:01:12.012Z,76.32
2019-01-21T11:04:32.031Z,76.00
2019-01-21T11:07:38.523Z,75.60
2019-01-21T11:10:19.102Z,75.84
2019-01-21T11:13:12.078Z,75.13
2019-01-21T11:16:22.212Z,74.84
2019-01-21T11:19:22.227Z,74.25
2019-01-21T11:22:20.342Z,75.26
2019-01-21T11:25:19.576Z,75.32
2019-01-21T11:28:35.898Z,74.58
2019-01-21T11:31:30.519Z,74.09
2019-01-21T11:34:32.809Z,72.50
2019-01-21T11:37:48.503Z,71.48
2019-01-21T11:40:54.700Z,72.61
2019-01-21T11:44:02.240Z,72.05
2019-01-21T11:46:56.668Z,71.30
2019-01-21T11:49:50.515Z,71.14
2019-01-21T11:52:48.899Z,70.99
2019-01-21T11:55:48.206Z,71.63
2019-01-21T11:58:47.889Z,70.21
2019-01-21T12:01:46.656Z,69.82
2019-01-21T12:04:40.544Z,71.28
2019-01-21T12:07:29.492Z,70.09
2019-01-21T12:10:45.370Z,69.57
2019-01-21T12:14:00.426Z,68.57
2019-01-21T12:16:54.438Z,69.25
2019-01-21T12:19:51.893Z,68.58
2019-01-21T12:23:01.949Z,69.23
2019-01-21T12:25:47.777Z,68.92
2019-01-21T12:28:34.654Z,68.80
2019-01-21T12:32:12.343Z,67.75
2019-01-21T12:34:52.728Z,67.38
2019-01-21T12:37:34.214Z,67.08
2019-01-21T12:40:43.510Z,67.40
2019-01-21T12:43:50.907Z,66.67
2019-01-21T12:47:01.218Z,66.38
2019-01-21T12:50:07.158Z,65.87
2019-01-21T12:52:54.606Z,66.64
2019-01-21T12:55:46.544Z,65.91
2019-01-21T12:58:34.483Z,65.46
2019-01-21T13:01:46.262Z,63.67
2019-01-21T13:05:01.474Z,64.41
2019-01-21T13:08:17.386Z,65.20
2019-01-21T13:11:10.512Z,62.54
2019-01-21T13:14:21.019Z,63.58
2019-01-21T13:17:17.482Z,63.81
2019-01-21T13:20:42.850Z,63.31
2019-01-21T13:23:45.168Z,63.87
2019-01-21T13:26:46.870Z,63.59
2019-01-21T13:29:48.653Z,63.55
2019-01-21T13:32:45.760Z,62.94
2019-01-21T13:35:49.925Z,62.24
2019-01-21T13:39:17.412Z,61.40
2019-01-21T13:42:30.243Z,62.09
2019-01-21T13:45:49.240Z,61.83
2019-01-21T13:48:46.525Z,61.39
2019-01-21T13:52:08.875Z,61.16
2019-01-21T13:54:56.689Z,61.41
2019-01-21T13:58:13.014Z,61.81
2019-01-21T14:01:23.946Z,61.95
2019-01-21T14:04:21.660Z,62.63
2019-01-21T14:07:26.475Z,62.38
2019-01-21T14:10:27.431Z,61.57
2019-01-21T14:13:19.145Z,61.80
2019-01-21T14:16:32.905Z,62.42
2019-01-21T14:19:26.168Z,62.45
2019-01-21T14:22:47.263Z,62.24
2019-01-21T14:26:13.107Z,62.44
2019-01-21T14:29:01.705Z,61.44
2019-01-21T14:32:05.731Z,61.42
2019-01-21T14:35:03.676Z,62.11
2019-01-21T14:38:25.857Z,61.94
2019-01-21T14:41:34.919Z,61.55
2019-01-21T14:45:03.615Z,61.57
2019-01-21T14:51:55.434Z,62.80
2019-01-21T14:55:01.565Z,62.16
2019-01-21T14:57:52.923Z,62.55
2019-01-21T15:01:15.522Z,62.15
2019-01-21T15:04:06.429Z,60.99
2019-01-21T15:07:07.294Z,61.51
2019-01-21T15:10:23.923Z,61.51
2019-01-21T15:13:24.130Z,62.53
2019-01-21T15:16:46.897Z,62.34
2019-01-21T15:20:24.363Z,63.19
2019-01-21T15:23:23.134Z,63.66
2019-01-21T15:26:28.607Z,63.99
2019-01-21T15:29:24.971Z,64.32
2019-01-21T15:32:34.739Z,63.14
2019-01-21T15:35:44.899Z,64.32
2019-01-21T15:38:34.693Z,65.38
2019-01-21T15:41:40.511Z,65.99
2019-01-21T15:44:49.329Z,66.05
2019-01-21T15:47:58.249Z,66.46
2019-01-21T15:51:19.132Z,66.86
2019-01-21T15:54:49.281Z,68.18
2019-01-21T15:57:53.731Z,68.62
2019-01-21T16:01:06.108Z,68.39
2019-01-21T16:04:09.219Z,69.90
2019-01-21T16:06:47.281Z,70.10
2019-01-21T16:09:54.714Z,69.88
2019-01-21T16:12:57.886Z,71.23
2019-01-21T16:16:17.589Z,72.52
2019-01-21T16:22:41.870Z,73.02
2019-01-21T16:25:46.650Z,72.93
2019-01-21T16:28:39.677Z,73.05
2019-01-21T16:32:30.886Z,73.42
2019-01-21T16:35:22.503Z,73.75
2019-01-21T16:41:49.491Z,73.58
2019-01-21T16:44:26.603Z,74.03
2019-01-21T16:47:05.947Z,75.00
2019-01-21T16:49:42.917Z,75.07
2019-01-21T16:52:29.507Z,74.83
2019-01-21T16:55:01.085Z,74.86
2019-01-21T16:57:30.329Z,75.45
2019-01-21T16:59:59.877Z,75.20
2019-01-21T17:02:29.097Z,75.70
2019-01-21T17:04:58.359Z,75.79
2019-01-21T17:07:27.622Z,75.62
2019-01-21T17:09:58.131Z,76.07
2019-01-21T17:12:27.348Z,76.62
2019-01-21T17:15:25.703Z,76.56
2019-01-21T17:17:56.732Z,76.59
2019-01-21T17:20:31.805Z,77.11
2019-01-21T17:23:09.266Z,77.56
2019-01-21T17:25:43.365Z,76.85
2019-01-21T17:28:18.502Z,77.09
2019-01-21T17:30:58.934Z,77.35
2019-01-21T17:34:16.786Z,77.35
2019-01-21T17:36:47.687Z,77.95
2019-01-21T17:39:23.910Z,78.18
2019-01-21T17:42:06.103Z,78.53
2019-01-21T17:44:38.428Z,78.26
2019-01-21T17:47:12.718Z,77.74
2019-01-21T17:49:44.560Z,77.58
2019-01-21T17:52:26.256Z,76.96
2019-01-21T17:55:02.662Z,75.36
2019-01-21T17:57:41.444Z,75.32
2019-01-21T18:00:15.335Z,74.79
2019-01-21T18:02:44.696Z,74.22
2019-01-21T18:05:14.079Z,74.47
2019-01-21T18:07:43.470Z,73.68
2019-01-21T18:10:13.996Z,73.46
2019-01-21T18:12:43.220Z,73.81
2019-01-21T18:15:13.018Z,74.62
2019-01-21T18:17:42.379Z,74.93
2019-01-21T18:20:23.413Z,75.62
2019-01-21T18:23:28.392Z,76.10
2019-01-21T18:26:46.842Z,76.01
2019-01-21T18:29:33.357Z,76.77
2019-01-21T18:32:05.600Z,77.32
2019-01-21T18:34:38.641Z,77.27
2019-01-21T18:37:28.719Z,77.73
2019-01-21T18:39:45.418Z,77.42
2019-01-21T18:42:14.715Z,77.97
2019-01-21T18:44:48.596Z,78.27
2019-01-21T18:47:17.836Z,78.50
2019-01-21T18:49:48.847Z,78.79
2019-01-21T18:52:18.060Z,78.51
2019-01-21T18:54:47.798Z,78.09
2019-01-21T18:57:17.093Z,78.95
2019-01-21T18:59:46.504Z,79.22
2019-01-21T19:02:23.002Z,79.20
2019-01-21T19:04:54.424Z,79.53
2019-01-21T19:07:28.270Z,80.08
2019-01-21T19:10:00.324Z,79.24
2019-01-21T19:12:29.523Z,79.30
2019-01-21T19:14:58.765Z,79.29
2019-01-21T19:17:27.934Z,79.03
2019-01-21T19:19:57.091Z,78.92
2019-01-21T19:22:26.348Z,79.20
2019-01-21T19:24:55.565Z,79.12
2019-01-21T19:27:24.953Z,79.29
2019-01-21T19:29:54.285Z,79.27
2019-01-21T19:32:23.453Z,79.40
2019-01-21T19:34:52.703Z,79.63
2019-01-21T19:37:21.925Z,79.58
2019-01-21T19:39:51.346Z,78.99
2019-01-21T19:42:20.635Z,79.75
2019-01-21T19:44:49.812Z,79.39
2019-01-21T19:47:19.122Z,79.58
2019-01-21T19:49:48.289Z,79.73
2019-01-21T19:52:17.597Z,79.47
2019-01-21T19:54:46.864Z,79.66
2019-01-21T19:57:16.125Z,80.19
2019-01-21T19:59:45.309Z,80.14
2019-01-21T20:02:15.800Z,80.57
2019-01-21T20:04:44.950Z,81.04
2019-01-21T20:07:14.440Z,80.73
2019-01-21T20:09:43.695Z,80.36
2019-01-21T20:12:14.283Z,81.13
2019-01-21T20:14:43.427Z,81.13
2019-01-21T20:17:12.720Z,80.77
2019-01-21T20:19:41.983Z,80.57
2019-01-21T20:22:11.398Z,80.14
2019-01-21T20:24:40.640Z,80.05
2019-01-21T20:27:09.892Z,80.46
2019-01-21T20:29:39.079Z,80.38
2019-01-21T20:32:08.429Z,80.37
2019-01-21T20:34:37.641Z,80.35
2019-01-21T20:37:08.849Z,80.33
2019-01-21T20:39:38.048Z,81.10
2019-01-21T20:42:07.295Z,81.20
2019-01-21T20:44:36.618Z,81.10
2019-01-21T20:47:05.743Z,80.59
2019-01-21T20:49:34.911Z,80.10
2019-01-21T20:52:04.072Z,80.43
2019-01-21T20:54:33.315Z,81.14
2019-01-21T20:57:02.624Z,81.12
2019-01-21T20:59:31.831Z,81.54
2019-01-21T21:02:00.972Z,81.40
2019-01-21T21:04:30.249Z,81.70
2019-01-21T21:06:59.391Z,82.00
2019-01-21T21:09:28.633Z,82.17
2019-01-21T21:11:57.695Z,81.93
2019-01-21T21:14:27.608Z,82.18
2019-01-21T21:16:56.700Z,82.03
2019-01-21T21:19:25.827Z,82.07
2019-01-21T21:21:54.931Z,82.06
2019-01-21T21:24:24.217Z,82.44
2019-01-21T21:26:54.823Z,82.12
2019-01-21T21:29:23.968Z,82.32
2019-01-21T21:31:53.030Z,82.44
2019-01-21T21:34:22.282Z,82.84
2019-01-21T21:36:51.429Z,82.62
2019-01-21T21:39:20.613Z,82.43
2019-01-21T21:41:49.689Z,82.79
2019-01-21T21:44:19.147Z,82.49
2019-01-21T21:46:48.234Z,82.22
2019-01-21T21:49:17.331Z,81.82
2019-01-21T21:51:46.412Z,81.95
2019-01-21T21:54:15.568Z,81.86
2019-01-21T21:56:44.940Z,82.24
2019-01-21T21:59:14.379Z,82.24
2019-01-21T22:01:43.525Z,82.73
2019-01-21T22:04:12.668Z,82.40
2019-01-21T22:06:41.898Z,82.45
2019-01-21T22:09:10.983Z,82.16
2019-01-21T22:11:40.424Z,82.42
2019-01-21T22:14:09.435Z,82.52
2019-01-21T22:16:38.540Z,82.31
2019-01-21T22:19:07.638Z,82.19
2019-01-21T22:21:36.938Z,82.19
2019-01-21T22:24:06.018Z,81.56
2019-01-21T22:26:35.181Z,81.48
2019-01-21T22:29:04.277Z,81.58
2019-01-21T22:31:34.057Z,81.11
2019-01-21T22:34:03.189Z,80.30
2019-01-21T22:36:32.308Z,80.34
2019-01-21T22:39:01.461Z,80.77
2019-01-21T22:41:30.650Z,80.57
2019-01-21T22:43:59.794Z,80.29
2019-01-21T22:46:29.602Z,80.20
2019-01-21T22:48:58.706Z,80.44
2019-01-21T22:51:27.835Z,80.18
2019-01-21T22:53:56.999Z,79.53
2019-01-21T22:56:26.103Z,79.71
2019-01-21T22:58:55.331Z,79.59
2019-01-21T23:01:27.354Z,79.33
2019-01-21T23:03:56.570Z,79.61
2019-01-21T23:06:25.775Z,79.64
2019-01-21T23:08:56.574Z,79.85
2019-01-21T23:11:27.225Z,79.13
2019-01-21T23:13:56.459Z,78.81
2019-01-21T23:16:25.513Z,79.25
2019-01-21T23:18:54.673Z,79.00
2019-01-21T23:21:23.749Z,79.04
2019-01-21T23:23:52.848Z,79.26
2019-01-21T23:26:22.007Z,79.52
2019-01-21T23:28:51.264Z,79.62
2019-01-21T23:31:20.514Z,80.01
2019-01-21T23:33:49.605Z,80.01
2019-01-21T23:36:18.783Z,80.09
2019-01-21T23:38:47.913Z,80.00
2019-01-21T23:41:17.533Z,80.41
2019-01-21T23:43:46.657Z,80.11
2019-01-21T23:46:16.046Z,80.17
2019-01-21T23:48:45.110Z,79.90
2019-01-21T23:51:14.278Z,80.03
2019-01-21T23:53:43.345Z,79.57
2019-01-21T23:56:12.423Z,79.77
2019-01-21T23:58:41.533Z,79.46
